createdAt,value
2018-06-24T00:02:58.452Z,1.37
2018-06-24T00:07:02.424Z,1.73
2018-06-24T00:11:06.854Z,1.33
2018-06-24T00:15:11.222Z,1.83
2018-06-24T00:19:15.574Z,1.60
2018-06-24T00:23:20.052Z,1.80
2018-06-24T00:27:24.694Z,1.73
2018-06-24T00:31:29.224Z,1.60
2018-06-24T00:35:33.585Z,1.63
2018-06-24T00:39:37.849Z,1.90
2018-06-24T00:43:41.587Z,2.00
2018-06-24T00:47:46.054Z,1.90
2018-06-24T00:51:50.585Z,1.80
2018-06-24T00:55:55.143Z,1.90
2018-06-24T01:00:15.133Z,1.83
2018-06-24T01:04:19.368Z,1.90
2018-06-24T01:08:23.667Z,1.63
2018-06-24T01:12:29.152Z,1.50
2018-06-24T01:16:33.459Z,1.90
2018-06-24T01:20:37.880Z,1.60
2018-06-24T01:24:42.370Z,1.57
2018-06-24T01:28:46.591Z,2.00
2018-06-24T01:32:51.128Z,1.83
2018-06-24T01:36:55.404Z,1.37
2018-06-24T01:40:59.655Z,1.80
2018-06-24T01:45:04.137Z,2.17
2018-06-24T01:49:08.479Z,1.83
2018-06-24T01:53:12.300Z,1.63
2018-06-24T01:57:16.015Z,1.77
2018-06-24T02:01:19.915Z,1.90
2018-06-24T02:05:24.424Z,1.47
2018-06-24T02:09:28.965Z,1.80
2018-06-24T02:13:32.882Z,1.83
2018-06-24T02:17:37.230Z,1.73
2018-06-24T02:21:41.654Z,1.80
2018-06-24T02:25:46.104Z,2.10
2018-06-24T02:29:50.569Z,1.80
2018-06-24T02:33:54.978Z,1.97
2018-06-24T02:37:59.277Z,2.33
2018-06-24T02:42:03.590Z,1.50
2018-06-24T02:46:07.948Z,3.60
2018-06-24T02:50:12.515Z,1.83
2018-06-24T02:54:16.773Z,1.70
2018-06-24T02:58:20.555Z,2.03
2018-06-24T03:02:24.793Z,1.70
2018-06-24T03:06:29.158Z,2.00
2018-06-24T03:10:32.864Z,2.20
2018-06-24T03:14:36.832Z,1.93
2018-06-24T03:18:41.095Z,2.07
2018-06-24T03:22:44.926Z,1.93
2018-06-24T03:26:49.220Z,1.83
2018-06-24T03:30:53.511Z,1.83
2018-06-24T03:34:57.789Z,2.03
2018-06-24T03:39:01.580Z,2.40
2018-06-24T03:43:05.872Z,1.80
2018-06-24T03:47:10.147Z,1.90
2018-06-24T03:51:14.705Z,2.20
2018-06-24T03:55:18.941Z,1.80
2018-06-24T03:59:23.481Z,2.00
2018-06-24T04:03:27.208Z,1.87
2018-06-24T04:07:31.626Z,1.50
2018-06-24T04:11:35.375Z,2.07
2018-06-24T04:15:39.772Z,1.53
2018-06-24T04:19:43.991Z,1.67
2018-06-24T04:23:48.293Z,1.43
2018-06-24T04:27:52.169Z,2.20
2018-06-24T04:31:56.600Z,1.60
2018-06-24T04:36:00.800Z,1.60
2018-06-24T04:40:05.231Z,2.00
2018-06-24T04:44:09.924Z,2.17
2018-06-24T04:48:14.214Z,1.50
2018-06-24T04:52:18.491Z,1.40
2018-06-24T04:56:22.953Z,1.20
2018-06-24T05:00:26.791Z,1.87
2018-06-24T05:04:30.771Z,1.67
2018-06-24T05:08:35.095Z,1.30
2018-06-24T05:12:39.348Z,1.53
2018-06-24T05:16:43.814Z,1.60
2018-06-24T05:20:47.662Z,1.40
2018-06-24T05:24:51.950Z,1.67
2018-06-24T05:28:56.776Z,1.50
2018-06-24T05:33:01.129Z,1.50
2018-06-24T05:37:06.648Z,1.43
2018-06-24T05:41:10.940Z,1.00
2018-06-24T05:45:15.247Z,0.90
2018-06-24T05:49:19.568Z,1.70
2018-06-24T05:53:23.939Z,1.30
2018-06-24T05:57:28.197Z,1.20
2018-06-24T06:01:33.613Z,1.30
2018-06-24T06:05:37.339Z,1.20
2018-06-24T06:09:41.661Z,1.00
2018-06-24T06:13:45.479Z,1.20
2018-06-24T06:17:49.161Z,1.30
2018-06-24T06:21:53.847Z,1.40
2018-06-24T06:25:58.116Z,1.20
2018-06-24T06:30:02.628Z,1.10
2018-06-24T06:34:07.213Z,1.00
2018-06-24T06:38:11.708Z,1.03
2018-06-24T06:42:16.081Z,0.80
2018-06-24T06:46:20.444Z,1.13
2018-06-24T06:50:24.159Z,1.00
2018-06-24T06:54:27.999Z,0.73
2018-06-24T06:58:32.495Z,0.80
2018-06-24T07:02:36.900Z,0.77
2018-06-24T07:06:41.336Z,0.97
2018-06-24T07:10:45.844Z,0.50
2018-06-24T07:14:50.314Z,0.80
2018-06-24T07:18:54.664Z,0.90
2018-06-24T07:22:59.086Z,0.93
2018-06-24T07:27:03.385Z,0.90
2018-06-24T07:31:15.017Z,0.60
2018-06-24T07:35:28.194Z,0.90
2018-06-24T07:39:39.848Z,0.80
2018-06-24T07:43:48.766Z,0.80
2018-06-24T07:48:01.462Z,1.00
2018-06-24T07:52:13.875Z,0.77
2018-06-24T07:56:26.464Z,0.70
2018-06-24T08:00:36.369Z,0.93
2018-06-24T08:04:49.577Z,1.10
2018-06-24T08:13:15.525Z,1.10
2018-06-24T08:17:19.888Z,0.87
2018-06-24T08:21:24.225Z,0.80
2018-06-24T08:25:29.570Z,1.10
2018-06-24T08:29:33.922Z,0.70
2018-06-24T08:33:38.229Z,1.00
2018-06-24T08:37:42.636Z,1.53
2018-06-24T08:41:47.084Z,1.20
2018-06-24T08:45:51.503Z,1.13
2018-06-24T08:49:55.777Z,0.77
2018-06-24T08:54:00.155Z,1.00
2018-06-24T08:58:04.391Z,1.03
2018-06-24T09:02:08.954Z,1.07
2018-06-24T09:06:13.309Z,0.63
2018-06-24T09:10:17.561Z,1.10
2018-06-24T09:14:22.068Z,1.00
2018-06-24T09:18:26.348Z,1.20
2018-06-24T09:22:30.135Z,1.17
2018-06-24T09:26:34.364Z,1.57
2018-06-24T09:30:41.084Z,1.53
2018-06-24T09:34:45.552Z,1.20
2018-06-24T09:38:49.808Z,0.80
2018-06-24T09:42:54.101Z,0.80
2018-06-24T09:46:58.745Z,1.13
2018-06-24T09:51:02.919Z,0.73
2018-06-24T09:55:07.357Z,0.90
2018-06-24T09:59:11.568Z,0.93
2018-06-24T10:03:16.001Z,0.80
2018-06-24T10:07:20.235Z,0.90
2018-06-24T10:11:24.868Z,0.97
2018-06-24T10:15:30.243Z,1.00
2018-06-24T10:19:34.544Z,0.83
2018-06-24T10:23:39.900Z,0.60
2018-06-24T10:27:44.121Z,0.77
2018-06-24T10:31:48.594Z,0.80
2018-06-24T10:35:58.655Z,1.37
2018-06-24T10:40:07.574Z,0.60
2018-06-24T10:44:18.273Z,0.80
2018-06-24T10:52:41.176Z,0.60
2018-06-24T10:56:52.308Z,0.80
2018-06-24T11:01:06.284Z,0.70
2018-06-24T11:05:15.144Z,1.07
2018-06-24T11:09:27.442Z,0.83
2018-06-24T11:13:37.120Z,0.50
2018-06-24T11:17:48.962Z,0.60
2018-06-24T11:21:53.490Z,0.63
2018-06-24T11:26:03.250Z,0.67
2018-06-24T11:30:07.686Z,0.63
2018-06-24T11:34:11.923Z,0.70
2018-06-24T11:38:16.173Z,0.87
2018-06-24T11:42:20.389Z,0.70
2018-06-24T11:46:24.693Z,0.80
2018-06-24T11:50:28.976Z,0.70
2018-06-24T11:54:33.244Z,0.60
2018-06-24T11:58:37.636Z,0.60
2018-06-24T12:02:41.868Z,0.80
2018-06-24T12:06:46.204Z,1.00
2018-06-24T12:10:50.616Z,0.70
2018-06-24T12:14:54.828Z,0.73
2018-06-24T12:18:59.192Z,1.00
2018-06-24T12:23:09.321Z,0.90
2018-06-24T12:27:13.899Z,1.00
2018-06-24T12:31:18.452Z,0.63
2018-06-24T12:35:22.932Z,0.80
2018-06-24T12:39:27.867Z,0.80
2018-06-24T12:43:32.215Z,0.90
2018-06-24T12:47:36.901Z,1.03
2018-06-24T12:51:41.226Z,1.57
2018-06-24T12:55:45.964Z,0.80
2018-06-24T12:59:50.504Z,0.90
2018-06-24T13:03:55.327Z,1.17
2018-06-24T13:07:59.837Z,1.10
2018-06-24T13:12:04.417Z,1.17
2018-06-24T13:16:08.767Z,0.80
2018-06-24T13:20:13.228Z,0.80
2018-06-24T13:24:17.582Z,0.90
2018-06-24T13:28:21.928Z,1.13
2018-06-24T13:32:26.144Z,1.30
2018-06-24T13:36:30.428Z,0.80
2018-06-24T13:40:34.658Z,1.20
2018-06-24T13:44:38.827Z,1.10
2018-06-24T13:48:43.363Z,1.13
2018-06-24T13:52:47.652Z,0.90
2018-06-24T13:56:52.450Z,1.40
2018-06-24T14:00:56.673Z,1.10
2018-06-24T14:05:00.964Z,1.07
2018-06-24T14:09:06.919Z,0.80
2018-06-24T14:13:11.258Z,2.10
2018-06-24T14:17:16.754Z,1.03
2018-06-24T14:21:20.957Z,1.10
2018-06-24T14:25:25.208Z,0.70
2018-06-24T14:29:29.681Z,1.00
2018-06-24T14:33:34.129Z,0.97
2018-06-24T14:37:38.391Z,1.10
2018-06-24T14:41:42.790Z,0.80
2018-06-24T14:45:47.344Z,1.33
2018-06-24T14:49:51.591Z,0.70
2018-06-24T14:53:55.278Z,0.90
2018-06-24T14:57:59.675Z,1.00
2018-06-24T15:02:04.118Z,0.70
2018-06-24T15:06:08.433Z,1.10
2018-06-24T15:10:12.676Z,1.57
2018-06-24T15:14:17.049Z,1.00
2018-06-24T15:18:21.243Z,1.17
2018-06-24T15:22:25.636Z,0.90
2018-06-24T15:26:29.330Z,1.00
2018-06-24T15:30:33.675Z,1.33
2018-06-24T15:34:37.956Z,1.03
2018-06-24T15:38:42.348Z,1.00
2018-06-24T15:42:46.047Z,1.23
2018-06-24T15:46:50.349Z,1.00
2018-06-24T15:50:54.596Z,0.80
2018-06-24T15:54:58.824Z,0.97
2018-06-24T15:59:03.645Z,1.13
2018-06-24T16:03:07.997Z,0.97
2018-06-24T16:07:12.248Z,1.10
2018-06-24T16:11:16.609Z,1.07
2018-06-24T16:15:20.296Z,1.10
2018-06-24T16:19:24.517Z,0.90
2018-06-24T16:23:28.887Z,1.00
2018-06-24T16:27:32.579Z,1.00
2018-06-24T16:31:36.864Z,1.17
2018-06-24T16:35:41.168Z,1.00
2018-06-24T16:39:44.896Z,1.10
2018-06-24T16:43:51.985Z,1.20
2018-06-24T16:48:01.306Z,1.20
2018-06-24T16:52:05.752Z,0.90
2018-06-24T16:56:10.106Z,1.20
2018-06-24T17:00:14.690Z,1.30
2018-06-24T17:04:18.549Z,1.17
2018-06-24T17:08:23.295Z,1.10
2018-06-24T17:12:27.032Z,1.40
2018-06-24T17:16:31.419Z,1.10
2018-06-24T17:20:36.113Z,1.03
2018-06-24T17:24:40.563Z,0.90
2018-06-24T17:28:44.825Z,0.90
2018-06-24T17:32:49.161Z,1.73
2018-06-24T17:36:53.507Z,1.80
2018-06-24T17:41:02.875Z,1.60
2018-06-24T17:45:15.553Z,1.50
2018-06-24T17:49:23.941Z,1.37
2018-06-24T17:53:33.427Z,1.30
2018-06-24T18:01:58.142Z,1.33
2018-06-24T18:06:03.007Z,1.60
2018-06-24T18:10:07.434Z,2.00
2018-06-24T18:14:11.748Z,1.43
2018-06-24T18:18:16.140Z,1.10
2018-06-24T18:22:20.746Z,1.13
2018-06-24T18:26:25.143Z,1.60
2018-06-24T18:30:29.527Z,2.20
2018-06-24T18:34:33.782Z,2.50
2018-06-24T18:38:38.214Z,2.27
2018-06-24T18:42:42.645Z,2.20
2018-06-24T18:46:47.774Z,1.90
2018-06-24T18:50:52.203Z,2.30
2018-06-24T18:54:56.749Z,2.20
2018-06-24T18:59:01.155Z,1.80
2018-06-24T19:03:06.163Z,2.30
2018-06-24T19:07:10.508Z,1.73
2018-06-24T19:11:15.054Z,1.93
2018-06-24T19:15:19.766Z,1.90
2018-06-24T19:19:24.236Z,1.83
2018-06-24T19:23:28.646Z,1.67
2018-06-24T19:27:34.070Z,2.80
2018-06-24T19:31:38.813Z,2.13
2018-06-24T19:35:45.136Z,2.07
2018-06-24T19:39:49.812Z,2.57
2018-06-24T19:43:54.406Z,2.63
2018-06-24T19:47:59.809Z,2.67
2018-06-24T19:52:04.285Z,3.50
2018-06-24T19:56:08.962Z,3.30
2018-06-24T20:00:13.698Z,2.60
2018-06-24T20:04:18.175Z,3.00
2018-06-24T20:08:22.683Z,2.70
2018-06-24T20:16:52.580Z,2.30
2018-06-24T20:20:56.872Z,2.13
2018-06-24T20:25:01.338Z,2.30
2018-06-24T20:29:05.762Z,2.50
2018-06-24T20:33:10.101Z,2.33
2018-06-24T20:37:14.320Z,2.17
2018-06-24T20:41:18.580Z,2.63
2018-06-24T20:45:23.160Z,1.77
2018-06-24T20:49:27.515Z,2.37
2018-06-24T20:53:31.830Z,2.50
2018-06-24T20:57:36.117Z,1.90
2018-06-24T21:01:40.325Z,2.17
2018-06-24T21:05:45.649Z,2.00
2018-06-24T21:09:49.891Z,3.27
2018-06-24T21:13:54.121Z,2.70
2018-06-24T21:17:58.398Z,2.33
2018-06-24T21:22:02.705Z,2.50
2018-06-24T21:26:06.971Z,2.67
2018-06-24T21:30:11.417Z,1.83
2018-06-24T21:34:15.603Z,3.03
2018-06-24T21:38:19.995Z,2.77
2018-06-24T21:42:24.261Z,4.13
2018-06-24T21:46:28.474Z,2.37
2018-06-24T21:50:32.736Z,2.27
2018-06-24T21:54:37.135Z,2.80
2018-06-24T21:58:41.622Z,2.60
2018-06-24T22:02:45.879Z,2.80
2018-06-24T22:06:50.137Z,2.37
2018-06-24T22:10:54.529Z,2.60
2018-06-24T22:14:58.773Z,3.50
2018-06-24T22:19:02.949Z,3.70
2018-06-24T22:23:07.288Z,3.13
2018-06-24T22:27:11.599Z,3.33
2018-06-24T22:31:15.899Z,3.80
2018-06-24T22:35:20.136Z,4.00
2018-06-24T22:39:24.337Z,3.57
2018-06-24T22:43:28.756Z,3.40
2018-06-24T22:47:33.187Z,4.63
2018-06-24T22:51:37.600Z,3.73
2018-06-24T22:55:41.940Z,4.20
2018-06-24T22:59:57.062Z,3.10
2018-06-24T23:04:01.303Z,3.17
2018-06-24T23:08:05.801Z,3.90
2018-06-24T23:12:10.055Z,3.77
2018-06-24T23:16:14.386Z,4.73
2018-06-24T23:20:18.615Z,4.23
2018-06-24T23:24:22.836Z,3.80
2018-06-24T23:28:27.303Z,4.10
2018-06-24T23:32:31.533Z,3.00
2018-06-24T23:36:35.808Z,3.57
2018-06-24T23:40:40.169Z,3.60
2018-06-24T23:44:44.412Z,3.93
2018-06-24T23:48:48.621Z,3.87
2018-06-24T23:52:53.010Z,3.10
2018-06-24T23:57:00.140Z,3.90
